Time;durP1;ratioP1;P1;durP2;ratioP2;P2;SDS_P1;SDS_P2;PMS_P1;PMS_P2;Temp;Humidity;BMP_temperature;BMP_pressure;BME280_temperature;BME280_humidity;BME280_pressure;Samples;Min_cycle;Max_cycle;Signal;HPM_P1;HPM_P2
2021/04/08 00:01:51;;;;;;;7.55;1.80;;;;;;;1.63;81.56;101111.78;5089135;28;20552;-48
2021/04/08 00:04:16;;;;;;;3.85;1.27;;;;;;;1.64;81.08;101114.25;5091192;28;20020;-46
2021/04/08 00:06:42;;;;;;;7.60;1.42;;;;;;;1.75;80.62;101123.53;5089833;28;20027;-45
2021/04/08 00:09:07;;;;;;;6.30;1.45;;;;;;;1.72;80.83;101115.97;5087828;28;20040;-47
2021/04/08 00:11:33;;;;;;;7.03;1.50;;;;;;;1.71;80.97;101132.81;5092015;28;20773;-47
2021/04/08 00:13:58;;;;;;;3.85;1.30;;;;;;;1.70;80.70;101120.63;5074237;28;20493;-47
2021/04/08 00:16:24;;;;;;;7.70;1.58;;;;;;;1.71;81.01;101144.22;5090149;28;20386;-47
2021/04/08 00:18:50;;;;;;;8.48;1.23;;;;;;;1.72;80.65;101132.63;5089606;28;20077;-47
2021/04/08 00:21:16;;;;;;;7.93;1.98;;;;;;;1.71;80.95;101131.00;5088752;28;20206;-47
2021/04/08 00:23:41;;;;;;;7.78;1.92;;;;;;;1.70;80.74;101153.13;5088447;28;20032;-46
2021/04/08 00:26:07;;;;;;;6.90;2.15;;;;;;;1.69;80.22;101161.25;5088226;28;20034;-47
2021/04/08 00:28:32;;;;;;;6.45;1.67;;;;;;;1.72;80.43;101148.50;5091273;28;20547;-45
2021/04/08 00:30:58;;;;;;;7.78;1.63;;;;;;;1.72;79.89;101155.59;5087920;28;20047;-46
2021/04/08 00:33:23;;;;;;;13.75;2.35;;;;;;;1.72;80.20;101158.22;5090244;28;20024;-46
2021/04/08 00:35:49;;;;;;;6.80;1.50;;;;;;;1.72;80.70;101163.50;5088617;28;20109;-46
2021/04/08 00:38:14;;;;;;;8.40;2.38;;;;;;;1.69;80.40;101179.72;5089852;28;20031;-46
2021/04/08 00:40:42;;;;;;;7.70;2.00;;;;;;;1.68;80.14;101170.16;5093066;28;20102;-46
2021/04/08 00:43:08;;;;;;;8.05;1.80;;;;;;;1.70;79.96;101168.97;5089863;28;20543;-46
2021/04/08 00:45:33;;;;;;;9.30;2.10;;;;;;;1.63;79.78;101183.91;5070520;28;20023;-45
2021/04/08 00:47:59;;;;;;;10.57;2.25;;;;;;;1.66;79.96;101172.16;5074120;28;20058;-46
2021/04/08 00:50:26;;;;;;;11.73;2.10;;;;;;;1.66;80.18;101177.44;5088385;28;20031;-46
2021/04/08 00:52:57;;;;;;;9.52;2.38;;;;;;;1.64;79.84;101174.16;5090780;28;20520;-46
2021/04/08 00:55:26;;;;;;;13.85;2.60;;;;;;;1.64;79.59;101188.19;5089412;28;20374;-46
2021/04/08 00:57:54;;;;;;;14.82;2.25;;;;;;;1.66;79.28;101188.03;5092219;28;20062;-46
2021/04/08 01:00:20;;;;;;;9.02;2.65;;;;;;;1.65;79.08;101189.03;5089540;28;20031;-45
2021/04/08 01:02:46;;;;;;;10.05;1.92;;;;;;;1.73;78.92;101194.22;5088858;28;20493;-48
2021/04/08 01:05:12;;;;;;;11.40;1.65;;;;;;;1.60;79.66;101196.63;5086471;28;20056;-46
2021/04/08 01:07:39;;;;;;;11.10;1.70;;;;;;;1.72;78.90;101192.56;5095707;28;21476;-45
2021/04/08 01:10:07;;;;;;;7.95;2.05;;;;;;;1.66;78.84;101195.94;5090058;28;20616;-46
2021/04/08 01:12:33;;;;;;;12.02;1.98;;;;;;;1.58;79.38;101210.03;5088218;28;20035;-48
2021/04/08 01:14:59;;;;;;;6.75;1.60;;;;;;;1.65;79.20;101210.16;5091869;28;20032;-45
2021/04/08 01:17:35;;;;;;;9.88;1.77;;;;;;;1.62;79.28;101202.59;5095225;28;20366;-46
2021/04/08 01:20:22;;;;;;;7.57;1.80;;;;;;;1.66;79.02;101209.16;5089297;28;20161;-48
2021/04/08 01:22:53;;;;;;;7.93;1.67;;;;;;;1.67;78.69;101213.44;5090443;28;20108;-46
2021/04/08 01:25:28;;;;;;;7.38;2.05;;;;;;;1.66;78.78;101214.44;5087503;28;20217;-47
2021/04/08 01:28:38;;;;;;;7.13;2.20;;;;;;;1.57;78.88;101215.47;5095501;28;20032;-48
2021/04/08 01:31:11;;;;;;;11.00;2.00;;;;;;;1.57;78.30;101224.22;5088810;28;20435;-46
2021/04/08 01:33:45;;;;;;;11.10;2.10;;;;;;;1.59;78.97;101218.75;5097605;28;20041;-46
2021/04/08 01:36:16;;;;;;;12.38;2.75;;;;;;;1.61;78.55;101214.94;5093564;28;20054;-46
2021/04/08 01:38:46;;;;;;;11.88;2.92;;;;;;;1.55;78.79;101222.78;5099535;28;20027;-46
2021/04/08 01:41:17;;;;;;;11.30;2.50;;;;;;;1.56;78.75;101213.84;5096195;28;20055;-45
2021/04/08 01:43:45;;;;;;;6.07;1.85;;;;;;;1.56;79.08;101221.75;5096978;28;20111;-46
2021/04/08 01:46:14;;;;;;;10.98;2.47;;;;;;;1.58;78.81;101231.16;5098015;28;20035;-48
2021/04/08 01:48:44;;;;;;;12.45;2.63;;;;;;;1.52;78.74;101230.03;5083396;28;20043;-46
2021/04/08 01:51:12;;;;;;;8.35;2.10;;;;;;;1.48;78.93;101239.31;5097185;28;20665;-48
2021/04/08 01:53:43;;;;;;;15.68;2.60;;;;;;;1.47;79.00;101232.41;5098683;28;20044;-47
2021/04/08 01:56:10;;;;;;;13.70;2.17;;;;;;;1.45;79.18;101234.41;5097012;28;20463;-46
2021/04/08 01:58:38;;;;;;;6.45;1.73;;;;;;;1.40;79.92;101242.00;5097602;28;20058;-48
2021/04/08 02:01:04;;;;;;;9.77;2.50;;;;;;;1.42;79.32;101229.44;5098215;28;20405;-48
2021/04/08 02:03:32;;;;;;;6.57;1.98;;;;;;;1.44;79.85;101247.78;5096234;28;20020;-45
2021/04/08 02:05:59;;;;;;;16.52;3.45;;;;;;;1.42;80.11;101234.72;5098189;28;20062;-46
2021/04/08 02:08:26;;;;;;;7.07;2.05;;;;;;;1.49;79.69;101233.03;5098192;28;20061;-47
2021/04/08 02:10:53;;;;;;;9.80;1.95;;;;;;;1.55;79.97;101231.50;5084996;28;20039;-47
2021/04/08 02:13:21;;;;;;;7.75;2.53;;;;;;;1.50;79.49;101241.78;5097510;28;20978;-46
2021/04/08 02:15:48;;;;;;;13.63;2.25;;;;;;;1.48;79.65;101234.03;5098599;28;20501;-45
2021/04/08 02:18:19;;;;;;;10.57;2.17;;;;;;;1.47;79.93;101231.59;5081743;28;20057;-46
2021/04/08 02:20:49;;;;;;;13.25;2.65;;;;;;;1.48;79.65;101228.75;5097776;28;20506;-45
2021/04/08 02:23:21;;;;;;;8.35;2.45;;;;;;;1.41;80.13;101230.44;5094146;28;20067;-46
2021/04/08 02:25:49;;;;;;;10.95;2.65;;;;;;;1.47;79.85;101231.59;5078652;28;20024;-46
2021/04/08 02:28:15;;;;;;;12.82;2.85;;;;;;;1.43;80.17;101240.84;5097020;28;20034;-45
2021/04/08 02:30:46;;;;;;;11.75;2.78;;;;;;;1.44;80.41;101237.22;5095157;28;20550;-46
2021/04/08 02:33:24;;;;;;;10.55;2.67;;;;;;;1.39;80.67;101232.44;5094791;28;20335;-45
2021/04/08 02:35:53;;;;;;;16.50;2.63;;;;;;;1.41;80.61;101243.66;5098856;28;20024;-46
2021/04/08 02:38:24;;;;;;;9.93;2.55;;;;;;;1.46;80.59;101259.81;5095448;28;20023;-45
2021/04/08 02:40:50;;;;;;;17.23;2.20;;;;;;;1.52;80.03;101253.00;5094969;28;20735;-46
2021/04/08 02:43:16;;;;;;;21.77;2.97;;;;;;;1.55;80.43;101255.28;5095991;28;20135;-45
2021/04/08 02:45:42;;;;;;;13.30;2.63;;;;;;;1.62;80.30;101265.97;5099447;28;20449;-45
2021/04/08 02:48:14;;;;;;;9.95;2.47;;;;;;;1.72;79.85;101262.06;5094912;28;20118;-45
2021/04/08 02:50:41;;;;;;;15.32;2.30;;;;;;;1.72;79.56;101261.25;5098419;28;20095;-46
2021/04/08 02:53:16;;;;;;;10.70;2.70;;;;;;;1.78;79.60;101261.34;5094568;28;20034;-45
2021/04/08 02:56:05;;;;;;;12.18;2.25;;;;;;;1.83;79.25;101267.97;5094397;28;20055;-46
2021/04/08 02:58:35;;;;;;;13.65;2.40;;;;;;;1.90;78.85;101267.06;5081557;28;20508;-46
2021/04/08 03:01:10;;;;;;;13.90;2.63;;;;;;;1.86;79.29;101270.22;5096777;28;20481;-49
2021/04/08 03:03:46;;;;;;;9.38;2.42;;;;;;;1.95;78.99;101272.63;5098326;28;20040;-47
2021/04/08 03:06:12;;;;;;;10.65;2.78;;;;;;;1.95;78.99;101285.00;5094933;28;21899;-47
2021/04/08 03:08:41;;;;;;;16.10;2.47;;;;;;;1.95;78.69;101285.00;5097846;28;20051;-47
2021/04/08 03:11:09;;;;;;;11.48;2.88;;;;;;;1.97;78.58;101297.03;5093415;28;20038;-46
2021/04/08 03:13:40;;;;;;;12.45;3.05;;;;;;;1.94;78.38;101281.53;5098405;28;20478;-47
2021/04/08 03:16:13;;;;;;;10.93;2.30;;;;;;;1.95;78.84;101285.81;5094412;28;20032;-48
2021/04/08 03:18:42;;;;;;;16.83;2.28;;;;;;;1.96;78.68;101284.00;5098725;28;20192;-47
2021/04/08 03:21:09;;;;;;;11.60;2.33;;;;;;;2.01;78.07;101287.78;5093763;28;20019;-45
2021/04/08 03:23:35;;;;;;;8.77;1.85;;;;;;;2.00;78.61;101286.13;5096385;28;20024;-46
2021/04/08 03:26:01;;;;;;;10.88;2.65;;;;;;;2.01;78.70;101286.97;5093750;28;20102;-49
2021/04/08 03:28:28;;;;;;;14.85;2.42;;;;;;;2.13;78.31;101291.59;5097936;28;20069;-46
2021/04/08 03:30:55;;;;;;;20.45;3.33;;;;;;;1.97;78.80;101306.78;5096703;28;20053;-46
2021/04/08 03:33:21;;;;;;;11.80;3.83;;;;;;;2.03;78.33;101309.56;5095524;28;20078;-46
2021/04/08 03:35:48;;;;;;;8.75;3.08;;;;;;;1.98;79.19;101306.63;5098300;28;20027;-46
2021/04/08 03:38:19;;;;;;;6.45;2.58;;;;;;;1.99;79.46;101310.94;5093738;28;20125;-48
2021/04/08 03:40:46;;;;;;;17.45;3.55;;;;;;;1.89;80.03;101317.44;5094725;28;20039;-46
2021/04/08 03:43:13;;;;;;;14.65;2.45;;;;;;;1.82;80.43;101309.41;5095311;28;20108;-46
2021/04/08 03:45:39;;;;;;;16.42;3.33;;;;;;;1.90;79.72;101311.16;5094079;28;20120;-47
2021/04/08 03:48:08;;;;;;;15.35;3.35;;;;;;;1.87;80.07;101309.69;5095308;28;20020;-46
2021/04/08 03:50:35;;;;;;;16.23;2.47;;;;;;;1.86;80.19;101320.44;5098284;28;20058;-46
2021/04/08 03:53:02;;;;;;;8.20;1.90;;;;;;;1.95;80.02;101316.72;5094386;28;20431;-45
2021/04/08 03:55:28;;;;;;;12.52;2.72;;;;;;;1.87;80.10;101317.63;5095510;28;20031;-45
2021/04/08 03:57:56;;;;;;;10.55;2.85;;;;;;;1.86;79.80;101320.44;5098323;28;20508;-46
2021/04/08 04:00:22;;;;;;;15.10;3.08;;;;;;;1.88;79.92;101329.81;5095427;28;20554;-46
2021/04/08 04:02:49;;;;;;;5.65;2.03;;;;;;;1.80;80.80;101328.09;5095319;28;20489;-46
2021/04/08 04:05:15;;;;;;;9.00;2.33;;;;;;;1.82;80.59;101319.97;5092772;28;20110;-46
2021/04/08 04:07:49;;;;;;;12.20;3.33;;;;;;;1.83;80.87;101340.13;5090423;28;20085;-46
2021/04/08 04:10:15;;;;;;;9.30;2.70;;;;;;;1.78;81.15;101331.88;5080356;28;20028;-45
2021/04/08 04:12:41;;;;;;;7.40;2.03;;;;;;;1.77;81.14;101341.63;5099189;28;20051;-46
2021/04/08 04:15:09;;;;;;;8.57;2.35;;;;;;;1.73;80.47;101342.16;5092375;28;20031;-46
2021/04/08 04:17:35;;;;;;;9.52;2.25;;;;;;;1.71;80.34;101339.69;5097241;28;20036;-46
2021/04/08 04:20:03;;;;;;;14.15;3.25;;;;;;;1.72;80.78;101348.44;5095366;28;20019;-47
2021/04/08 04:22:29;;;;;;;20.08;2.65;;;;;;;1.75;80.75;101346.25;5096812;28;20389;-46
2021/04/08 04:24:54;;;;;;;12.70;3.80;;;;;;;1.82;80.65;101349.03;5092684;28;20028;-45
2021/04/08 04:27:20;;;;;;;19.17;2.90;;;;;;;1.82;80.52;101349.03;5094882;28;20035;-46
2021/04/08 04:29:46;;;;;;;9.13;2.58;;;;;;;1.87;80.35;101359.06;5099325;28;20038;-46
2021/04/08 04:32:12;;;;;;;10.40;2.45;;;;;;;1.92;79.89;101357.53;5094483;28;20042;-49
2021/04/08 04:34:45;;;;;;;10.70;2.15;;;;;;;1.93;79.94;101361.00;5097248;28;20024;-45
2021/04/08 04:37:11;;;;;;;10.23;2.88;;;;;;;1.97;79.36;101371.03;5093957;28;20626;-46
2021/04/08 04:39:39;;;;;;;8.15;2.35;;;;;;;1.97;79.37;101373.69;5094956;28;20043;-46
2021/04/08 04:42:08;;;;;;;10.20;2.60;;;;;;;1.96;79.11;101374.69;5094368;28;20112;-46
2021/04/08 04:44:34;;;;;;;14.95;2.97;;;;;;;2.02;78.70;101374.00;5093445;28;20556;-45
2021/04/08 04:47:01;;;;;;;11.38;2.80;;;;;;;2.02;78.45;101383.75;5095753;28;20119;-48
2021/04/08 04:49:26;;;;;;;10.85;3.10;;;;;;;2.04;78.56;101379.94;5088603;28;20767;-46
2021/04/08 04:51:52;;;;;;;11.00;2.70;;;;;;;2.00;78.73;101383.09;5092648;28;20038;-47
2021/04/08 04:54:18;;;;;;;16.67;2.92;;;;;;;2.07;78.07;101376.94;5094939;28;20031;-45
2021/04/08 04:56:43;;;;;;;9.82;2.10;;;;;;;2.10;78.13;101379.22;5098234;28;20032;-48
2021/04/08 04:59:09;;;;;;;10.65;2.92;;;;;;;2.07;78.23;101398.06;5093278;28;20027;-46
2021/04/08 05:01:35;;;;;;;17.58;3.13;;;;;;;2.05;78.49;101388.69;5097502;28;20028;-45
2021/04/08 05:04:00;;;;;;;11.38;3.67;;;;;;;2.06;77.75;101393.78;5095120;28;20034;-47
2021/04/08 05:06:25;;;;;;;9.88;2.50;;;;;;;2.14;77.73;101390.25;5095301;28;20103;-45
2021/04/08 05:08:51;;;;;;;18.08;3.20;;;;;;;2.16;77.56;101411.25;5093777;28;20119;-45
2021/04/08 05:11:17;;;;;;;11.23;2.72;;;;;;;2.08;77.84;101415.56;5094030;28;20608;-46
2021/04/08 05:13:42;;;;;;;17.30;3.75;;;;;;;2.10;77.95;101437.38;5097893;28;20023;-47
2021/04/08 05:16:08;;;;;;;8.45;2.47;;;;;;;2.15;77.39;101423.59;5097419;28;20484;-46
2021/04/08 05:18:33;;;;;;;12.38;2.80;;;;;;;2.09;77.85;101427.78;5100981;28;20061;-45
2021/04/08 05:20:59;;;;;;;11.68;2.38;;;;;;;2.15;77.60;101431.53;5098659;28;20024;-48
2021/04/08 05:23:25;;;;;;;13.13;2.78;;;;;;;2.16;77.76;101430.56;5081088;28;20077;-47
2021/04/08 05:25:51;;;;;;;14.50;2.55;;;;;;;2.17;77.40;101428.75;5094285;28;20426;-48
2021/04/08 05:28:17;;;;;;;8.50;2.20;;;;;;;2.24;77.55;101433.16;5097192;28;20042;-45
2021/04/08 05:30:43;;;;;;;15.82;3.05;;;;;;;2.13;78.00;101436.19;5089927;28;20028;-46
2021/04/08 05:33:09;;;;;;;10.05;2.35;;;;;;;2.08;78.98;101435.91;5092661;28;20089;-46
2021/04/08 05:35:35;;;;;;;9.30;2.80;;;;;;;2.01;79.59;101433.16;5090877;28;20024;-45
2021/04/08 05:38:01;;;;;;;18.08;3.90;;;;;;;1.98;80.16;101441.44;5090490;28;20036;-45
2021/04/08 05:40:27;;;;;;;8.52;3.20;;;;;;;2.02;79.68;101455.13;5096320;27;20435;-47
2021/04/08 05:42:52;;;;;;;14.45;2.65;;;;;;;2.11;79.36;101448.75;5091492;28;20020;-46
2021/04/08 05:45:19;;;;;;;14.10;2.45;;;;;;;2.10;79.29;101453.22;5091338;28;20426;-46
2021/04/08 05:47:46;;;;;;;18.40;5.60;;;;;;;2.08;78.69;101457.03;5090882;28;20077;-45
2021/04/08 05:50:13;;;;;;;14.25;2.65;;;;;;;2.12;78.33;101460.97;5092725;28;20035;-45
2021/04/08 05:52:38;;;;;;;10.93;2.78;;;;;;;2.11;78.55;101452.22;5092529;28;20028;-46
2021/04/08 05:55:05;;;;;;;17.20;2.83;;;;;;;2.11;78.26;101491.88;5080412;28;20695;-45
2021/04/08 05:57:31;;;;;;;9.65;2.70;;;;;;;2.24;77.56;101474.63;5093270;28;20499;-47
2021/04/08 05:59:57;;;;;;;12.65;3.33;;;;;;;2.27;77.25;101490.97;5093734;28;20035;-46
2021/04/08 06:02:22;;;;;;;15.10;2.72;;;;;;;2.43;77.39;101487.38;5089532;28;20023;-46
2021/04/08 06:04:48;;;;;;;11.45;2.85;;;;;;;2.45;77.00;101487.19;5093191;28;20620;-46
2021/04/08 06:07:13;;;;;;;16.45;1.58;;;;;;;2.57;76.70;101499.03;5090244;28;20036;-46
2021/04/08 06:09:39;;;;;;;18.00;3.17;;;;;;;2.59;76.36;101494.38;5093279;28;20034;-46
2021/04/08 06:12:05;;;;;;;9.25;2.88;;;;;;;2.58;75.59;101498.03;5091207;28;20069;-46
2021/04/08 06:14:32;;;;;;;18.98;3.00;;;;;;;2.66;75.93;101492.66;5090771;28;20031;-45
2021/04/08 06:16:58;;;;;;;13.45;3.13;;;;;;;2.79;75.13;101492.06;5079973;28;20028;-45
2021/04/08 06:19:24;;;;;;;11.15;2.40;;;;;;;3.08;73.87;101489.47;5091513;28;20046;-46
2021/04/08 06:21:49;;;;;;;15.88;2.90;;;;;;;3.48;73.30;101495.34;5091480;28;20461;-46
2021/04/08 06:24:15;;;;;;;14.50;3.05;;;;;;;3.56;73.82;101495.25;5090267;28;20032;-46
2021/04/08 06:26:41;;;;;;;12.68;2.75;;;;;;;3.36;77.31;101505.56;5090096;28;20028;-46
2021/04/08 06:29:06;;;;;;;8.52;2.42;;;;;;;3.18;79.10;101518.34;5090687;28;21126;-46
2021/04/08 06:31:34;;;;;;;22.77;3.33;;;;;;;2.90;81.26;101520.75;5089365;28;20449;-46
2021/04/08 06:33:59;;;;;;;11.30;2.95;;;;;;;2.62;81.98;101529.22;5092381;28;20478;-46
2021/04/08 06:36:25;;;;;;;15.15;2.88;;;;;;;2.52;83.99;101533.94;5094308;28;20024;-47
2021/04/08 06:38:51;;;;;;;10.00;2.42;;;;;;;2.56;83.04;101537.06;5093054;28;20567;-46
2021/04/08 06:41:16;;;;;;;14.80;2.55;;;;;;;2.47;82.28;101531.00;5093196;28;20032;-46
2021/04/08 06:43:46;;;;;;;19.25;3.40;;;;;;;2.40;82.32;101535.34;5089179;28;20092;-45
2021/04/08 06:46:16;;;;;;;22.10;3.40;;;;;;;2.30;82.27;101540.03;5089303;28;20672;-47
2021/04/08 06:48:47;;;;;;;14.73;3.88;;;;;;;2.29;81.08;101544.50;5091481;28;20134;-47
2021/04/08 06:51:18;;;;;;;18.88;2.75;;;;;;;2.43;81.09;101559.63;5074719;28;20568;-46
2021/04/08 06:53:46;;;;;;;13.77;2.78;;;;;;;2.55;80.57;101548.66;5089282;28;20512;-45
2021/04/08 06:56:12;;;;;;;9.10;2.00;;;;;;;2.52;79.59;101557.75;5091588;28;20043;-45
2021/04/08 06:58:39;;;;;;;14.63;2.83;;;;;;;2.64;80.73;101574.84;5092071;28;20123;-47
2021/04/08 07:01:07;;;;;;;14.32;3.03;;;;;;;2.78;78.40;101577.75;5092218;28;20025;-47
2021/04/08 07:03:33;;;;;;;19.50;3.38;;;;;;;2.79;78.17;101563.50;5092034;28;20024;-46
2021/04/08 07:05:58;;;;;;;11.90;2.88;;;;;;;2.86;78.75;101573.19;5092763;28;20061;-46
2021/04/08 07:08:24;;;;;;;8.95;2.70;;;;;;;2.87;77.39;101579.31;5091360;28;20028;-46
2021/04/08 07:10:50;;;;;;;18.98;3.10;;;;;;;2.83;76.62;101583.31;5089321;28;20107;-48
2021/04/08 07:13:15;;;;;;;10.98;3.13;;;;;;;2.73;75.67;101605.56;5081269;28;20150;-46
2021/04/08 07:15:41;;;;;;;17.20;3.17;;;;;;;2.73;76.30;101587.03;5092597;28;20111;-47
2021/04/08 07:18:07;;;;;;;11.98;2.33;;;;;;;2.84;76.15;101596.38;5090261;28;20035;-46
2021/04/08 07:20:33;;;;;;;16.52;3.03;;;;;;;2.77;76.71;101599.91;5091288;28;20027;-45
2021/04/08 07:23:09;;;;;;;13.23;3.33;;;;;;;2.72;76.54;101605.75;5091753;28;20027;-47
2021/04/08 07:25:35;;;;;;;14.43;2.90;;;;;;;2.76;75.88;101617.63;5091277;28;20059;-46
2021/04/08 07:28:00;;;;;;;8.02;2.03;;;;;;;2.86;75.67;101625.31;5088437;28;20116;-46
2021/04/08 07:30:27;;;;;;;14.30;3.70;;;;;;;2.87;75.73;101619.03;5092010;28;20106;-46
2021/04/08 07:32:59;;;;;;;12.15;2.22;;;;;;;3.00;75.53;101643.09;5089694;28;20027;-46
2021/04/08 07:35:39;;;;;;;11.50;2.22;;;;;;;3.19;75.13;101653.22;5092006;28;20024;-47
2021/04/08 07:38:05;;;;;;;13.60;3.05;;;;;;;3.12;74.14;101665.53;5087026;28;20084;-46
2021/04/08 07:40:31;;;;;;;11.73;2.63;;;;;;;3.22;73.85;101654.69;5076577;28;20300;-46
2021/04/08 07:42:56;;;;;;;11.07;2.22;;;;;;;3.38;73.96;101651.06;5088297;28;20027;-47
2021/04/08 07:45:32;;;;;;;10.70;2.72;;;;;;;3.46;74.63;101653.66;5093294;28;20589;-47
2021/04/08 07:48:03;;;;;;;13.18;2.15;;;;;;;3.46;73.78;101658.97;5088877;28;20371;-48
2021/04/08 07:50:30;;;;;;;15.35;2.45;;;;;;;3.41;74.26;101667.47;5090096;28;20787;-48
2021/04/08 07:52:57;;;;;;;11.98;2.70;;;;;;;3.09;77.90;101688.88;5094024;28;20035;-47
2021/04/08 07:55:33;;;;;;;15.05;3.22;;;;;;;2.60;81.00;101695.28;5091452;28;20031;-46
2021/04/08 07:58:09;;;;;;;10.68;2.85;;;;;;;2.38;83.65;101685.44;5091445;28;20100;-49
2021/04/08 08:00:37;;;;;;;18.77;2.25;;;;;;;2.37;84.67;101699.66;5087031;28;20028;-46
2021/04/08 08:03:28;;;;;;;9.07;1.83;;;;;;;2.35;83.75;101706.97;5087630;28;20032;-48
2021/04/08 08:05:59;;;;;;;16.60;2.50;;;;;;;2.11;85.83;101716.59;5068694;28;20037;-47
2021/04/08 08:08:44;;;;;;;10.00;2.65;;;;;;;2.28;85.20;101712.09;5068433;28;20036;-46
2021/04/08 08:11:13;;;;;;;13.40;2.53;;;;;;;2.31;85.45;101717.03;5067238;28;20024;-46
2021/04/08 08:13:54;;;;;;;15.45;2.55;;;;;;;2.39;84.67;101718.84;5066697;28;20032;-46
2021/04/08 08:16:24;;;;;;;11.02;2.28;;;;;;;2.40;83.78;101731.88;5067668;28;20358;-47
2021/04/08 08:18:51;;;;;;;10.38;2.85;;;;;;;2.57;83.73;101730.00;5072175;28;20873;-46
2021/04/08 08:21:21;;;;;;;14.95;2.92;;;;;;;2.57;83.49;101742.41;5071194;28;20024;-47
2021/04/08 08:23:53;;;;;;;13.00;2.03;;;;;;;2.71;83.08;101741.69;5071595;28;20024;-47
2021/04/08 08:26:32;;;;;;;10.75;2.20;;;;;;;2.79;82.25;101743.47;5068860;28;20032;-47
2021/04/08 08:29:02;;;;;;;13.75;2.22;;;;;;;3.00;79.58;101752.47;5070239;28;20056;-47
2021/04/08 08:31:39;;;;;;;11.93;2.15;;;;;;;3.16;79.03;101751.53;5068400;28;20028;-46
2021/04/08 08:34:09;;;;;;;11.88;2.17;;;;;;;3.28;78.96;101754.63;5067646;28;20512;-47
2021/04/08 08:36:36;;;;;;;13.15;1.90;;;;;;;3.39;78.67;101761.34;5068996;28;20115;-46
2021/04/08 08:39:08;;;;;;;8.75;3.05;;;;;;;3.38;77.88;101767.63;5070966;28;20032;-46
2021/04/08 08:41:38;;;;;;;6.53;1.80;;;;;;;3.55;77.17;101771.81;5071777;28;20029;-46
2021/04/08 08:44:06;;;;;;;7.85;2.28;;;;;;;3.57;76.27;101781.22;5067512;28;20082;-47
2021/04/08 08:46:36;;;;;;;16.50;2.70;;;;;;;3.50;74.93;101787.44;5072040;28;20111;-46
2021/04/08 08:49:02;;;;;;;8.70;2.40;;;;;;;3.67;75.70;101788.13;5067791;28;20050;-46
2021/04/08 08:51:28;;;;;;;9.95;2.35;;;;;;;3.62;75.06;101792.16;5069505;28;20027;-49
2021/04/08 08:53:55;;;;;;;13.75;2.38;;;;;;;3.65;74.73;101785.66;5067878;28;20546;-47
2021/04/08 08:56:25;;;;;;;8.32;1.92;;;;;;;3.77;74.00;101794.00;5066038;28;20024;-47
2021/04/08 08:58:52;;;;;;;12.82;2.63;;;;;;;3.75;73.29;101807.44;5068102;28;20059;-47
2021/04/08 09:01:22;;;;;;;19.35;2.00;;;;;;;3.73;72.30;101809.44;5070665;28;20024;-46
2021/04/08 09:03:48;;;;;;;10.70;2.50;;;;;;;3.78;72.10;101801.81;5063314;28;20027;-47
2021/04/08 09:06:15;;;;;;;10.60;2.70;;;;;;;4.01;71.99;101811.56;5072105;28;20060;-47
2021/04/08 09:08:45;;;;;;;10.48;2.03;;;;;;;3.91;71.31;101827.72;5069778;28;20036;-47
2021/04/08 09:11:24;;;;;;;12.88;2.40;;;;;;;4.03;71.77;101814.88;5048175;28;20032;-47
2021/04/08 09:13:52;;;;;;;13.70;2.97;;;;;;;4.01;71.25;101828.31;5069824;28;20025;-46
2021/04/08 09:16:17;;;;;;;17.08;2.63;;;;;;;4.16;70.85;101826.53;5066294;28;20021;-46
2021/04/08 09:19:05;;;;;;;9.70;1.95;;;;;;;4.23;70.05;101826.63;5070619;28;20527;-46
2021/04/08 09:21:46;;;;;;;13.50;4.75;;;;;;;4.23;69.47;101832.75;5073465;28;20575;-47
2021/04/08 09:24:21;;;;;;;15.50;3.58;;;;;;;4.41;70.42;101832.41;5070445;28;20030;-47
2021/04/08 09:26:50;;;;;;;;;;;;;;;4.31;68.90;101844.28;5071754;28;20071;-47
2021/04/08 09:29:52;;;;;;;12.38;2.65;;;;;;;4.73;67.99;101844.53;5072282;28;19915;-46
2021/04/08 09:32:26;;;;;;;7.78;2.03;;;;;;;4.77;67.30;101844.97;5069092;28;20024;-47
2021/04/08 09:35:04;;;;;;;9.87;1.90;;;;;;;4.94;66.46;101835.81;5068095;28;20043;-46
2021/04/08 09:37:47;;;;;;;9.65;2.03;;;;;;;5.02;66.71;101849.00;5070261;28;20059;-46
2021/04/08 09:40:31;;;;;;;8.90;2.05;;;;;;;5.03;65.20;101850.66;5069742;28;20039;-47
2021/04/08 09:43:02;;;;;;;10.50;2.05;;;;;;;5.25;65.28;101851.56;5069804;28;20024;-48
2021/04/08 09:45:31;;;;;;;11.45;3.03;;;;;;;5.10;65.38;101854.22;5068374;28;20038;-47
2021/04/08 09:48:16;;;;;;;9.60;1.75;;;;;;;4.91;65.69;101861.94;5066888;28;20024;-47
2021/04/08 09:50:58;;;;;;;10.63;2.10;;;;;;;4.81;64.46;101867.50;5068144;28;20032;-47
2021/04/08 09:53:39;;;;;;;10.15;1.85;;;;;;;4.69;65.10;101874.28;5071116;28;20036;-48
2021/04/08 09:56:06;;;;;;;9.63;1.88;;;;;;;4.44;64.54;101884.28;5071665;28;20028;-47
2021/04/08 09:58:35;;;;;;;9.52;3.40;;;;;;;4.65;64.58;101879.09;5071553;28;20024;-46
2021/04/08 10:01:04;;;;;;;12.85;2.22;;;;;;;4.97;64.00;101877.13;5072456;28;20098;-48
2021/04/08 10:03:41;;;;;;;11.20;1.80;;;;;;;5.27;62.97;101880.59;5076209;28;20023;-46
2021/04/08 10:06:20;;;;;;;4.70;1.25;;;;;;;5.44;62.19;101882.84;5092384;28;20150;-46
2021/04/08 10:08:47;;;;;;;9.90;2.22;;;;;;;5.35;61.68;101891.94;5092028;28;20926;-47
2021/04/08 10:11:14;;;;;;;7.65;1.55;;;;;;;5.12;61.69;101885.91;5093835;28;20031;-47
2021/04/08 10:13:40;;;;;;;5.00;1.20;;;;;;;5.32;61.97;101880.84;5093226;28;20371;-47
2021/04/08 10:16:09;;;;;;;11.07;3.17;;;;;;;5.36;61.75;101893.56;5091789;28;20158;-46
2021/04/08 10:18:35;;;;;;;7.57;1.60;;;;;;;5.30;62.44;101901.47;5092162;28;20036;-47
2021/04/08 10:21:03;;;;;;;9.75;1.42;;;;;;;5.24;61.13;101894.25;5091992;28;20046;-47
2021/04/08 10:23:43;;;;;;;8.20;1.38;;;;;;;5.17;61.05;101904.78;5094764;28;20020;-45
2021/04/08 10:26:13;;;;;;;8.93;1.98;;;;;;;5.42;61.20;101913.28;5077350;28;20110;-47
2021/04/08 10:28:54;;;;;;;8.23;1.80;;;;;;;5.75;59.81;101906.53;5093048;28;20088;-46
2021/04/08 10:31:26;;;;;;;6.00;2.13;;;;;;;5.94;58.21;101901.63;5093983;28;20039;-46
2021/04/08 10:34:01;;;;;;;6.65;1.88;;;;;;;5.48;57.24;101915.19;5092619;28;20028;-46
2021/04/08 10:36:37;;;;;;;8.18;1.85;;;;;;;5.21;56.58;101918.53;5092805;28;20035;-47
2021/04/08 10:39:22;;;;;;;5.88;1.58;;;;;;;5.79;56.94;101916.78;5080303;28;20527;-45
2021/04/08 10:42:00;;;;;;;5.90;1.20;;;;;;;5.78;56.65;101918.63;5089667;28;20035;-46
2021/04/08 10:44:36;;;;;;;9.75;1.70;;;;;;;5.79;55.95;101922.09;5094138;28;20061;-47
2021/04/08 10:47:24;;;;;;;11.50;2.15;;;;;;;5.74;55.27;101918.19;5087349;28;20122;-46
2021/04/08 10:49:52;;;;;;;8.15;1.40;;;;;;;5.98;54.38;101924.19;5087786;28;20069;-47
2021/04/08 10:52:32;;;;;;;5.70;1.95;;;;;;;6.07;53.32;101917.72;5090920;28;20061;-46
2021/04/08 10:55:04;;;;;;;7.32;1.70;;;;;;;6.71;52.94;101916.84;5091365;28;20401;-48
2021/04/08 10:57:30;;;;;;;6.72;1.48;;;;;;;7.39;52.13;101924.03;5091668;28;20027;-46
2021/04/08 10:59:57;;;;;;;5.10;1.17;;;;;;;7.17;49.95;101927.78;5088774;28;20023;-46
2021/04/08 11:02:28;;;;;;;4.95;1.02;;;;;;;7.04;49.24;101919.72;5092359;28;20036;-46
2021/04/08 11:04:56;;;;;;;6.53;1.33;;;;;;;6.93;49.48;101915.75;5088414;28;20118;-48
2021/04/08 11:07:22;;;;;;;5.65;1.05;;;;;;;7.34;48.44;101920.28;5090215;28;20033;-47
2021/04/08 11:09:49;;;;;;;7.30;1.50;;;;;;;7.65;47.94;101919.81;5087892;28;20027;-47
2021/04/08 11:12:23;;;;;;;5.30;1.92;;;;;;;8.24;47.38;101922.59;5086780;28;22075;-47
2021/04/08 11:14:57;;;;;;;8.07;1.53;;;;;;;8.14;47.41;101915.00;5087067;28;20028;-47
2021/04/08 11:17:25;;;;;;;4.20;1.20;;;;;;;7.33;47.50;101930.13;5088902;28;20027;-48
2021/04/08 11:19:53;;;;;;;7.05;1.60;;;;;;;7.03;48.43;101939.41;5086632;28;20486;-46
2021/04/08 11:22:21;;;;;;;6.35;1.30;;;;;;;7.00;47.65;101937.94;5088304;28;20036;-47
2021/04/08 11:24:49;;;;;;;3.30;1.08;;;;;;;6.92;47.62;101932.75;5090409;28;20024;-47
2021/04/08 11:27:23;;;;;;;7.72;2.08;;;;;;;7.36;47.55;101936.91;5089279;28;20493;-47
2021/04/08 11:29:52;;;;;;;3.08;0.80;;;;;;;7.86;47.29;101933.00;5089136;28;20055;-47
2021/04/08 11:32:17;;;;;;;5.28;1.40;;;;;;;8.32;45.82;101930.44;5088293;28;20039;-48
2021/04/08 11:34:45;;;;;;;9.88;1.73;;;;;;;8.54;45.46;101931.09;5090469;27;20582;-49
2021/04/08 11:37:12;;;;;;;2.97;1.15;;;;;;;8.91;46.37;101934.97;5087252;28;20039;-47
2021/04/08 11:39:37;;;;;;;7.95;1.48;;;;;;;8.74;44.99;101929.22;5087540;28;20138;-47